createdAt,value
2024-04-26T00:01:28.133Z,6.50
2024-04-26T00:03:34.690Z,6.40
2024-04-26T00:05:39.320Z,6.40
2024-04-26T00:07:43.940Z,6.40
2024-04-26T00:09:49.054Z,6.40
2024-04-26T00:11:53.682Z,6.30
2024-04-26T00:13:55.641Z,6.30
2024-04-26T00:16:00.670Z,6.30
2024-04-26T00:18:05.324Z,6.20
2024-04-26T00:20:07.708Z,6.20
2024-04-26T00:22:12.207Z,6.20
2024-04-26T00:24:21.249Z,6.10
2024-04-26T00:26:25.837Z,6.10
2024-04-26T00:28:30.373Z,6.10
2024-04-26T00:30:34.919Z,6.10
2024-04-26T00:32:39.624Z,6.10
2024-04-26T00:34:44.823Z,6.20
2024-04-26T00:36:46.852Z,6.10
2024-04-26T00:38:51.365Z,6.20
2024-04-26T00:40:58.473Z,6.20
2024-04-26T00:43:00.490Z,6.20
2024-04-26T00:45:05.175Z,6.20
2024-04-26T00:47:09.899Z,6.20
2024-04-26T00:49:14.580Z,6.30
2024-04-26T00:51:19.479Z,6.30
2024-04-26T00:53:21.455Z,6.30
2024-04-26T00:55:26.041Z,6.30
2024-04-26T00:57:34.106Z,6.30
2024-04-26T00:59:39.262Z,6.30
2024-04-26T01:01:43.866Z,6.40
2024-04-26T01:03:48.912Z,6.40
2024-04-26T01:05:53.479Z,6.40
2024-04-26T01:07:58.039Z,6.40
2024-04-26T01:10:02.595Z,6.40
2024-04-26T01:12:07.229Z,6.40
2024-04-26T01:14:14.396Z,6.30
2024-04-26T01:16:19.063Z,6.40
2024-04-26T01:18:23.776Z,6.40
2024-04-26T01:20:28.460Z,6.40
2024-04-26T01:22:39.643Z,6.30
2024-04-26T01:24:46.774Z,6.40
2024-04-26T01:26:51.354Z,6.40
2024-04-26T01:28:55.849Z,6.40
2024-04-26T01:31:00.397Z,6.40
2024-04-26T01:33:05.024Z,6.40
2024-04-26T01:35:09.863Z,6.40
2024-04-26T01:37:14.452Z,6.40
2024-04-26T01:39:18.987Z,6.50
2024-04-26T01:41:23.573Z,6.40
2024-04-26T01:43:28.074Z,6.40
2024-04-26T01:45:30.032Z,6.40
2024-04-26T01:47:34.608Z,6.30
2024-04-26T01:49:36.718Z,6.30
2024-04-26T01:51:41.245Z,6.20
2024-04-26T01:53:43.202Z,6.20
2024-04-26T01:55:47.794Z,6.20
2024-04-26T01:57:52.767Z,6.20
2024-04-26T01:59:57.368Z,6.20
2024-04-26T02:01:59.357Z,6.20
2024-04-26T02:04:04.012Z,6.20
2024-04-26T02:06:06.456Z,6.20
2024-04-26T02:08:11.026Z,6.20
2024-04-26T02:10:13.027Z,6.20
2024-04-26T02:12:17.632Z,6.30
2024-04-26T02:14:22.332Z,6.30
2024-04-26T02:16:26.892Z,6.40
2024-04-26T02:18:28.938Z,6.40
2024-04-26T02:20:33.739Z,6.40
2024-04-26T02:22:35.711Z,6.40
2024-04-26T02:24:40.218Z,6.40
2024-04-26T02:26:44.767Z,6.50
2024-04-26T02:28:49.281Z,6.40
2024-04-26T02:30:56.403Z,6.50
2024-04-26T02:33:01.547Z,6.50
2024-04-26T02:35:06.406Z,6.50
2024-04-26T02:37:11.224Z,6.50
2024-04-26T02:39:15.791Z,6.50
2024-04-26T02:41:20.374Z,6.50
2024-04-26T02:43:24.876Z,6.50
2024-04-26T02:45:29.406Z,6.50
2024-04-26T02:47:36.649Z,6.50
2024-04-26T02:49:41.504Z,6.50
2024-04-26T02:51:46.018Z,6.50
2024-04-26T02:53:50.586Z,6.60
2024-04-26T02:55:55.166Z,6.50
2024-04-26T02:58:00.167Z,6.60
2024-04-26T03:00:04.836Z,6.50
2024-04-26T03:02:06.854Z,6.60
2024-04-26T03:04:14.103Z,6.50
2024-04-26T03:06:18.745Z,6.50
2024-04-26T03:08:20.745Z,6.50
2024-04-26T03:10:25.285Z,6.50
2024-04-26T03:12:29.881Z,6.50
2024-04-26T03:14:34.502Z,6.50
2024-04-26T03:16:39.955Z,6.50
2024-04-26T03:18:44.634Z,6.50
2024-04-26T03:20:52.949Z,6.50
2024-04-26T03:22:57.608Z,6.50
2024-04-26T03:25:02.117Z,6.50
2024-04-26T03:27:06.827Z,6.50
2024-04-26T03:29:08.866Z,6.50
2024-04-26T03:31:13.402Z,6.50
2024-04-26T03:33:18.116Z,6.50
2024-04-26T03:35:22.846Z,6.60
2024-04-26T03:37:29.992Z,6.60
2024-04-26T03:39:34.536Z,6.60
2024-04-26T03:41:36.530Z,6.60
2024-04-26T03:43:41.056Z,6.60
2024-04-26T03:45:45.581Z,6.60
2024-04-26T03:47:50.398Z,6.60
2024-04-26T03:49:55.030Z,6.60
2024-04-26T03:51:57.042Z,6.60
2024-04-26T03:54:04.258Z,6.60
2024-04-26T03:56:09.122Z,6.60
2024-04-26T03:58:13.640Z,6.60
2024-04-26T04:00:18.648Z,6.60
2024-04-26T04:02:20.733Z,6.60
2024-04-26T04:04:25.379Z,6.60
2024-04-26T04:06:29.938Z,6.60
2024-04-26T04:08:34.511Z,6.60
2024-04-26T04:10:42.634Z,6.60
2024-04-26T04:12:47.836Z,6.60
2024-04-26T04:14:49.952Z,6.60
2024-04-26T04:16:54.477Z,6.60
2024-04-26T04:18:59.104Z,6.60
2024-04-26T04:21:03.939Z,6.60
2024-04-26T04:23:08.552Z,6.60
2024-04-26T04:25:10.524Z,6.60
2024-04-26T04:27:17.725Z,6.60
2024-04-26T04:29:22.282Z,6.60
2024-04-26T04:31:26.807Z,6.60
2024-04-26T04:33:28.917Z,6.60
2024-04-26T04:35:33.667Z,6.60
2024-04-26T04:37:35.663Z,6.60
2024-04-26T04:39:41.636Z,6.60
2024-04-26T04:41:46.322Z,6.60
2024-04-26T04:43:53.439Z,6.60
2024-04-26T04:45:57.976Z,6.60
2024-04-26T04:48:02.566Z,6.60
2024-04-26T04:50:05.043Z,6.60
2024-04-26T04:52:09.578Z,6.60
2024-04-26T04:54:14.165Z,6.60
2024-04-26T04:56:18.802Z,6.60
2024-04-26T04:58:23.345Z,6.60
2024-04-26T05:00:30.647Z,6.60
2024-04-26T05:02:32.764Z,6.60
2024-04-26T05:04:37.432Z,6.60
2024-04-26T05:06:42.024Z,6.60
2024-04-26T05:08:46.641Z,6.60
2024-04-26T05:10:51.914Z,6.60
2024-04-26T05:12:56.604Z,6.70
2024-04-26T05:15:03.733Z,6.70
2024-04-26T05:17:11.180Z,6.70
2024-04-26T05:19:13.275Z,6.80
2024-04-26T05:21:17.960Z,6.80
2024-04-26T05:23:22.821Z,6.90
2024-04-26T05:25:27.457Z,6.80
2024-04-26T05:27:31.974Z,6.80
2024-04-26T05:29:34.013Z,6.80
2024-04-26T05:31:38.570Z,6.90
2024-04-26T05:33:45.986Z,6.90
2024-04-26T05:35:50.755Z,6.90
2024-04-26T05:37:55.321Z,6.90
2024-04-26T05:39:59.809Z,6.90
2024-04-26T05:42:04.553Z,6.90
2024-04-26T05:44:09.275Z,6.90
2024-04-26T05:46:13.816Z,6.90
2024-04-26T05:48:18.686Z,6.90
2024-04-26T05:50:26.064Z,7.00
2024-04-26T05:52:28.006Z,7.00
2024-04-26T05:54:32.697Z,7.00
2024-04-26T05:56:37.267Z,7.10
2024-04-26T05:58:39.344Z,7.20
2024-04-26T06:00:44.588Z,7.20
2024-04-26T06:02:48.802Z,7.20
2024-04-26T06:04:54.356Z,7.20
2024-04-26T06:06:59.742Z,7.20
2024-04-26T06:09:04.285Z,7.10
2024-04-26T06:11:09.329Z,7.10
2024-04-26T06:13:22.569Z,7.10
2024-04-26T06:15:33.090Z,7.10
2024-04-26T06:17:35.178Z,7.10
2024-04-26T06:19:39.928Z,7.20
2024-04-26T06:21:44.489Z,7.20
2024-04-26T06:23:50.808Z,7.30
2024-04-26T06:25:55.366Z,7.30
2024-04-26T06:27:59.886Z,7.40
2024-04-26T06:30:04.485Z,7.50
2024-04-26T06:32:09.098Z,7.50
2024-04-26T06:34:13.863Z,7.60
2024-04-26T06:36:18.646Z,7.60
2024-04-26T06:38:23.451Z,7.60
2024-04-26T06:40:30.686Z,7.70
2024-04-26T06:42:32.626Z,7.70
2024-04-26T06:44:37.222Z,7.80
2024-04-26T06:46:41.726Z,7.80
2024-04-26T06:48:46.315Z,7.80
2024-04-26T06:50:50.879Z,7.80
2024-04-26T06:52:55.459Z,7.80
2024-04-26T06:55:00.047Z,7.90
2024-04-26T06:57:07.274Z,7.90
2024-04-26T06:59:09.226Z,7.90
2024-04-26T07:01:13.828Z,7.90
2024-04-26T07:03:16.354Z,7.90
2024-04-26T07:05:21.302Z,8.00
2024-04-26T07:07:26.064Z,7.90
2024-04-26T07:09:30.559Z,8.00
2024-04-26T07:11:35.439Z,8.00
2024-04-26T07:13:42.626Z,8.10
2024-04-26T07:15:47.226Z,8.10
2024-04-26T07:17:52.145Z,8.10
2024-04-26T07:19:57.039Z,8.20
2024-04-26T07:22:01.848Z,8.10
2024-04-26T07:24:06.831Z,8.10
2024-04-26T07:26:11.523Z,8.00
2024-04-26T07:28:16.526Z,8.00
2024-04-26T07:30:23.701Z,8.00
2024-04-26T07:32:28.383Z,8.10
2024-04-26T07:34:31.104Z,8.30
2024-04-26T07:36:35.700Z,8.40
2024-04-26T07:38:40.257Z,8.40
2024-04-26T07:40:44.954Z,8.60
2024-04-26T07:42:49.488Z,8.60
2024-04-26T07:44:55.039Z,8.70
2024-04-26T07:47:02.246Z,8.70
2024-04-26T07:49:09.383Z,8.80
2024-04-26T07:51:12.353Z,8.90
2024-04-26T07:53:16.979Z,8.90
2024-04-26T07:55:21.489Z,9.00
2024-04-26T07:57:27.312Z,9.00
2024-04-26T07:59:32.111Z,9.00
2024-04-26T08:01:36.647Z,9.10
2024-04-26T08:03:44.001Z,9.20
2024-04-26T08:05:49.797Z,9.20
2024-04-26T08:07:54.578Z,9.10
2024-04-26T08:09:59.074Z,9.30
2024-04-26T08:12:01.221Z,9.20
2024-04-26T08:14:05.856Z,9.30
2024-04-26T08:16:10.851Z,9.40
2024-04-26T08:18:15.593Z,9.50
2024-04-26T08:20:22.803Z,9.50
2024-04-26T08:22:29.522Z,9.70
2024-04-26T08:24:38.373Z,9.70
2024-04-26T08:26:48.995Z,9.70
2024-04-26T08:28:53.545Z,9.80
2024-04-26T08:30:58.986Z,9.80
2024-04-26T08:33:09.359Z,9.80
2024-04-26T08:35:15.523Z,9.90
2024-04-26T08:37:22.756Z,10.00
2024-04-26T08:39:27.432Z,9.90
2024-04-26T08:41:32.233Z,9.90
2024-04-26T08:43:36.873Z,9.80
2024-04-26T08:45:41.915Z,9.90
2024-04-26T08:47:46.552Z,9.80
2024-04-26T08:49:51.166Z,9.90
2024-04-26T08:51:56.160Z,9.90
2024-04-26T08:54:03.330Z,10.00
2024-04-26T08:56:10.709Z,10.00
2024-04-26T08:58:16.059Z,10.00
2024-04-26T09:00:20.636Z,10.00
2024-04-26T09:02:25.342Z,10.00
2024-04-26T09:04:30.325Z,10.00
2024-04-26T09:06:35.459Z,10.00
2024-04-26T09:08:40.130Z,10.00
2024-04-26T09:10:47.256Z,10.00
2024-04-26T09:12:56.818Z,9.90
2024-04-26T09:15:08.660Z,9.90
2024-04-26T09:17:13.360Z,10.00
2024-04-26T09:19:15.691Z,10.00
2024-04-26T09:21:21.804Z,10.10
2024-04-26T09:23:24.244Z,10.10
2024-04-26T09:25:36.143Z,10.20
2024-04-26T09:27:43.306Z,10.10
2024-04-26T09:29:48.419Z,10.30
2024-04-26T09:32:01.091Z,10.40
2024-04-26T09:34:08.109Z,10.40
2024-04-26T09:36:10.410Z,10.50
2024-04-26T09:38:15.054Z,10.60
2024-04-26T09:40:19.721Z,10.60
2024-04-26T09:42:24.798Z,10.60
2024-04-26T09:44:31.972Z,10.60
2024-04-26T09:46:37.834Z,10.60
2024-04-26T09:48:42.524Z,10.60
2024-04-26T09:50:44.693Z,10.50
2024-04-26T09:52:50.860Z,10.60
2024-04-26T09:54:56.396Z,10.60
2024-04-26T09:57:01.075Z,10.70
2024-04-26T09:59:05.840Z,10.70
2024-04-26T10:01:13.118Z,10.70
2024-04-26T10:03:17.785Z,10.80
2024-04-26T10:05:22.658Z,10.60
2024-04-26T10:07:27.528Z,10.50
2024-04-26T10:09:32.143Z,10.50
2024-04-26T10:11:37.697Z,10.70
2024-04-26T10:13:46.598Z,10.80
2024-04-26T10:15:57.122Z,10.80
2024-04-26T10:18:04.494Z,10.90
2024-04-26T10:20:11.162Z,10.90
2024-04-26T10:22:15.708Z,11.10
2024-04-26T10:24:20.234Z,11.10
2024-04-26T10:26:22.165Z,11.40
2024-04-26T10:28:26.900Z,11.50
2024-04-26T10:30:31.407Z,11.60
2024-04-26T10:32:37.846Z,11.70
2024-04-26T10:34:46.669Z,11.50
2024-04-26T10:36:51.287Z,11.50
2024-04-26T10:38:55.868Z,11.60
2024-04-26T10:41:00.435Z,11.60
2024-04-26T10:43:02.385Z,11.50
2024-04-26T10:45:07.449Z,11.30
2024-04-26T10:47:12.584Z,11.10
2024-04-26T10:49:17.703Z,11.10
2024-04-26T10:51:25.853Z,10.90
2024-04-26T10:53:30.384Z,10.90
2024-04-26T10:55:39.147Z,10.80
2024-04-26T10:57:41.097Z,10.50
2024-04-26T10:59:45.636Z,10.50
2024-04-26T11:01:50.304Z,10.40
2024-04-26T11:03:52.764Z,10.20
2024-04-26T11:05:57.460Z,10.00
2024-04-26T11:08:04.635Z,9.90
2024-04-26T11:10:13.455Z,9.70
2024-04-26T11:12:18.132Z,9.70
2024-04-26T11:14:23.974Z,9.60
2024-04-26T11:16:25.923Z,9.50
2024-04-26T11:18:30.562Z,9.50
2024-04-26T11:20:35.610Z,9.50
2024-04-26T11:22:40.122Z,9.50
2024-04-26T11:24:47.236Z,9.40
2024-04-26T11:26:51.846Z,9.40
2024-04-26T11:28:56.443Z,9.40
2024-04-26T11:31:00.971Z,9.40
2024-04-26T11:33:08.469Z,9.40
2024-04-26T11:35:15.433Z,9.40
2024-04-26T11:37:20.002Z,9.40
2024-04-26T11:39:24.566Z,9.50
2024-04-26T11:41:31.695Z,9.40
2024-04-26T11:43:33.755Z,9.40
2024-04-26T11:45:39.614Z,9.30
2024-04-26T11:47:41.710Z,9.30
2024-04-26T11:49:46.543Z,9.30
2024-04-26T11:51:48.645Z,9.20
2024-04-26T11:53:53.390Z,9.20
2024-04-26T11:55:59.448Z,9.10
2024-04-26T11:58:07.350Z,9.20
2024-04-26T12:00:12.448Z,9.20
2024-04-26T12:02:21.754Z,9.20
2024-04-26T12:04:27.325Z,9.30
2024-04-26T12:06:32.218Z,9.30
2024-04-26T12:08:42.124Z,9.30
2024-04-26T12:10:55.143Z,9.30
2024-04-26T12:12:59.812Z,9.30
2024-04-26T12:15:08.760Z,9.20
2024-04-26T12:17:14.550Z,9.30
2024-04-26T12:19:17.238Z,9.20
2024-04-26T12:21:25.372Z,9.20
2024-04-26T12:23:30.257Z,9.20
2024-04-26T12:25:33.416Z,9.20
2024-04-26T12:27:38.294Z,9.20
2024-04-26T12:29:43.737Z,9.10
2024-04-26T12:31:50.481Z,9.10
2024-04-26T12:33:55.182Z,9.00
2024-04-26T12:35:59.882Z,9.00
2024-04-26T12:38:01.887Z,9.00
2024-04-26T12:40:06.764Z,9.00
2024-04-26T12:42:11.918Z,9.00
2024-04-26T12:44:16.621Z,8.90
2024-04-26T12:46:23.582Z,9.00
2024-04-26T12:48:28.322Z,8.90
2024-04-26T12:50:33.059Z,8.90
2024-04-26T12:52:38.125Z,8.90
2024-04-26T12:54:42.720Z,8.90
2024-04-26T12:56:47.302Z,8.90
2024-04-26T12:58:51.846Z,8.90
2024-04-26T13:00:56.853Z,8.90
2024-04-26T13:02:58.864Z,8.90
2024-04-26T13:05:06.201Z,8.80
2024-04-26T13:07:11.879Z,8.80
2024-04-26T13:09:16.540Z,8.80
2024-04-26T13:11:22.472Z,8.80
2024-04-26T13:13:27.014Z,8.80
2024-04-26T13:15:31.549Z,8.90
2024-04-26T13:17:36.526Z,8.80
2024-04-26T13:19:41.796Z,8.90
2024-04-26T13:21:49.133Z,8.80
2024-04-26T13:23:53.732Z,8.90
2024-04-26T13:25:58.282Z,8.90
2024-04-26T13:28:02.844Z,8.90
2024-04-26T13:30:08.574Z,9.00
2024-04-26T13:32:13.281Z,9.00
2024-04-26T13:34:19.600Z,9.10
2024-04-26T13:36:25.057Z,9.20
2024-04-26T13:38:29.692Z,9.20
2024-04-26T13:40:35.740Z,9.20
2024-04-26T13:42:37.691Z,9.20
2024-04-26T13:44:42.640Z,9.30
2024-04-26T13:46:47.601Z,9.20
2024-04-26T13:48:52.345Z,9.30
2024-04-26T13:50:57.089Z,9.10
2024-04-26T13:53:02.775Z,9.20
2024-04-26T13:55:07.761Z,9.10
2024-04-26T13:57:14.153Z,9.20
2024-04-26T13:59:18.840Z,9.10
2024-04-26T14:01:20.888Z,9.10
2024-04-26T14:03:25.555Z,9.10
2024-04-26T14:05:30.417Z,9.10
2024-04-26T14:07:35.437Z,9.10
2024-04-26T14:09:39.970Z,9.20
2024-04-26T14:11:44.851Z,9.20
2024-04-26T14:13:49.654Z,9.20
2024-04-26T14:15:54.212Z,9.20
2024-04-26T14:17:59.036Z,9.30
2024-04-26T14:20:03.707Z,9.20
2024-04-26T14:22:08.330Z,9.30
2024-04-26T14:24:14.059Z,9.30
2024-04-26T14:26:20.702Z,9.20
2024-04-26T14:28:27.900Z,9.30
2024-04-26T14:30:32.702Z,9.30
2024-04-26T14:32:34.713Z,9.40
2024-04-26T14:34:39.304Z,9.40
2024-04-26T14:36:44.406Z,9.40
2024-04-26T14:38:48.948Z,9.40
2024-04-26T14:40:53.505Z,9.40
2024-04-26T14:42:58.614Z,9.40
2024-04-26T14:45:05.926Z,9.40
2024-04-26T14:47:10.493Z,9.30
2024-04-26T14:49:16.061Z,9.40
2024-04-26T14:51:18.266Z,9.40
2024-04-26T14:53:22.863Z,9.30
2024-04-26T14:55:27.411Z,9.30
2024-04-26T14:57:32.052Z,9.30
2024-04-26T14:59:34.023Z,9.30
2024-04-26T15:01:41.328Z,9.30
2024-04-26T15:03:45.975Z,9.30
2024-04-26T15:05:50.537Z,9.30
2024-04-26T15:07:55.116Z,9.30
2024-04-26T15:10:03.394Z,9.20
2024-04-26T15:12:08.930Z,9.30
2024-04-26T15:14:13.498Z,9.30
2024-04-26T15:16:18.008Z,9.30
2024-04-26T15:18:25.224Z,9.40
2024-04-26T15:20:29.769Z,9.50
2024-04-26T15:22:34.679Z,9.50
2024-04-26T15:24:39.298Z,9.50
2024-04-26T15:26:41.312Z,9.50
2024-04-26T15:28:45.884Z,9.60
2024-04-26T15:30:50.447Z,9.50
2024-04-26T15:32:53.316Z,9.60
2024-04-26T15:35:00.655Z,9.50
2024-04-26T15:37:02.657Z,9.60
2024-04-26T15:39:11.898Z,9.60
2024-04-26T15:41:16.717Z,9.60
2024-04-26T15:43:21.842Z,9.60
2024-04-26T15:45:26.438Z,9.60
2024-04-26T15:47:31.003Z,9.60
2024-04-26T15:49:35.568Z,9.60
2024-04-26T15:51:45.121Z,9.60
2024-04-26T15:53:49.632Z,9.60
2024-04-26T15:55:54.347Z,9.70
2024-04-26T15:57:56.936Z,9.80
2024-04-26T16:00:01.447Z,9.80
2024-04-26T16:02:04.403Z,9.80
2024-04-26T16:04:09.058Z,9.90
2024-04-26T16:06:11.033Z,9.80
2024-04-26T16:08:18.160Z,9.80
2024-04-26T16:10:22.839Z,9.80
2024-04-26T16:12:24.828Z,9.80
2024-04-26T16:14:29.363Z,9.70
2024-04-26T16:16:33.908Z,9.60
2024-04-26T16:18:38.932Z,9.60
2024-04-26T16:20:43.467Z,9.60
2024-04-26T16:22:50.914Z,9.60
2024-04-26T16:24:58.095Z,9.60
2024-04-26T16:27:02.650Z,9.60
2024-04-26T16:29:07.866Z,9.60
2024-04-26T16:31:11.380Z,9.60
2024-04-26T16:33:16.104Z,9.70
2024-04-26T16:35:21.947Z,9.70
2024-04-26T16:37:26.495Z,9.70
2024-04-26T16:39:31.007Z,9.80
2024-04-26T16:41:38.690Z,9.80
2024-04-26T16:43:47.148Z,9.90
2024-04-26T16:45:51.705Z,9.90
2024-04-26T16:47:56.454Z,10.00
2024-04-26T16:50:02.489Z,10.00
2024-04-26T16:52:07.634Z,10.00
2024-04-26T16:54:11.233Z,9.90
2024-04-26T16:56:16.326Z,9.90
2024-04-26T16:58:23.465Z,9.90
2024-04-26T17:00:28.074Z,9.90
2024-04-26T17:02:30.019Z,9.80
2024-04-26T17:04:34.629Z,9.80
2024-04-26T17:06:36.574Z,9.80
2024-04-26T17:08:41.099Z,9.80
2024-04-26T17:10:45.653Z,9.70
2024-04-26T17:12:52.945Z,9.70
2024-04-26T17:15:00.222Z,9.60
2024-04-26T17:17:04.789Z,9.60
2024-04-26T17:19:09.342Z,9.60
2024-04-26T17:21:13.896Z,9.60
2024-04-26T17:23:18.480Z,9.60
2024-04-26T17:25:23.088Z,9.60
2024-04-26T17:27:27.630Z,9.60
2024-04-26T17:29:33.299Z,9.60
2024-04-26T17:31:40.911Z,9.50
2024-04-26T17:33:49.919Z,9.50
2024-04-26T17:35:56.418Z,9.50
2024-04-26T17:38:01.264Z,9.50
2024-04-26T17:40:06.079Z,9.50
2024-04-26T17:42:08.055Z,9.60
2024-04-26T17:44:14.921Z,9.60
2024-04-26T17:46:20.877Z,9.70
2024-04-26T17:48:28.271Z,9.70
2024-04-26T17:50:37.326Z,9.70
2024-04-26T17:52:42.409Z,9.70
2024-04-26T17:54:46.951Z,9.70
2024-04-26T17:56:51.461Z,9.70
2024-04-26T17:58:56.581Z,9.70
2024-04-26T18:01:01.257Z,9.70
2024-04-26T18:03:06.149Z,9.70
2024-04-26T18:05:10.866Z,9.60
2024-04-26T18:07:15.670Z,9.60
2024-04-26T18:09:20.334Z,9.60
2024-04-26T18:11:24.892Z,9.60
2024-04-26T18:13:27.982Z,9.50
2024-04-26T18:15:32.565Z,9.50
2024-04-26T18:17:36.432Z,9.50
2024-04-26T18:19:41.039Z,9.50
2024-04-26T18:21:48.136Z,9.50
2024-04-26T18:23:53.265Z,9.50
2024-04-26T18:25:58.494Z,9.50
2024-04-26T18:28:03.054Z,9.40
2024-04-26T18:30:05.881Z,9.40
2024-04-26T18:32:11.043Z,9.40
2024-04-26T18:34:15.650Z,9.40
2024-04-26T18:36:20.287Z,9.30
2024-04-26T18:38:27.394Z,9.30
2024-04-26T18:40:31.923Z,9.30
2024-04-26T18:42:36.506Z,9.30
2024-04-26T18:44:41.003Z,9.20
2024-04-26T18:46:47.649Z,9.20
2024-04-26T18:48:52.215Z,9.20
2024-04-26T18:50:54.156Z,9.10
2024-04-26T18:52:59.167Z,9.10
2024-04-26T18:55:06.893Z,9.00
2024-04-26T18:57:08.839Z,9.10
2024-04-26T18:59:13.355Z,9.00
2024-04-26T19:01:17.898Z,9.00
2024-04-26T19:03:22.557Z,9.00
2024-04-26T19:05:27.280Z,8.90
2024-04-26T19:07:31.899Z,8.90
2024-04-26T19:09:33.853Z,8.90
2024-04-26T19:11:41.030Z,8.90
2024-04-26T19:13:45.590Z,8.90
2024-04-26T19:15:50.326Z,8.90
2024-04-26T19:17:54.961Z,8.90
2024-04-26T19:19:59.691Z,8.90
2024-04-26T19:22:04.297Z,8.80
2024-04-26T19:24:10.263Z,8.80
2024-04-26T19:26:16.874Z,8.80
2024-04-26T19:28:24.013Z,8.80
2024-04-26T19:30:28.588Z,8.70
2024-04-26T19:32:33.181Z,8.70
2024-04-26T19:34:38.581Z,8.70
2024-04-26T19:36:43.864Z,8.70
2024-04-26T19:38:49.435Z,8.70
2024-04-26T19:40:54.142Z,8.70
2024-04-26T19:42:58.828Z,8.60
2024-04-26T19:45:07.201Z,8.70
2024-04-26T19:47:11.762Z,8.60
2024-04-26T19:49:22.627Z,8.60
2024-04-26T19:51:31.034Z,8.60
2024-04-26T19:53:51.695Z,8.60
2024-04-26T19:56:14.677Z,8.60
2024-04-26T19:58:22.058Z,8.60
2024-04-26T20:00:26.658Z,8.60
2024-04-26T20:02:31.241Z,8.50
2024-04-26T20:04:36.312Z,8.50
2024-04-26T20:06:38.499Z,8.50
2024-04-26T20:08:43.128Z,8.40
2024-04-26T20:10:45.351Z,8.40
2024-04-26T20:12:49.930Z,8.30
2024-04-26T20:14:54.823Z,8.30
2024-04-26T20:17:02.089Z,8.20
2024-04-26T20:19:05.531Z,8.10
2024-04-26T20:21:11.172Z,8.00
2024-04-26T20:23:15.747Z,8.00
2024-04-26T20:25:21.231Z,7.90
2024-04-26T20:27:27.618Z,7.90
2024-04-26T20:29:33.432Z,7.80
2024-04-26T20:31:35.439Z,7.80
2024-04-26T20:33:42.543Z,7.80
2024-04-26T20:35:47.057Z,7.70
2024-04-26T20:37:49.032Z,7.60
2024-04-26T20:39:55.691Z,7.50
2024-04-26T20:42:00.206Z,7.50
2024-04-26T20:44:04.901Z,7.40
2024-04-26T20:46:11.419Z,7.40
2024-04-26T20:48:17.978Z,7.40
2024-04-26T20:50:25.188Z,7.30
2024-04-26T20:52:31.358Z,7.30
2024-04-26T20:54:36.156Z,7.30
2024-04-26T20:56:42.223Z,7.20
2024-04-26T20:58:47.067Z,7.30
2024-04-26T21:00:49.190Z,7.20
2024-04-26T21:02:53.753Z,7.20
2024-04-26T21:04:58.324Z,7.20
2024-04-26T21:07:05.864Z,7.20
2024-04-26T21:09:10.391Z,7.20
2024-04-26T21:11:19.651Z,7.30
2024-04-26T21:13:24.326Z,7.20
2024-04-26T21:15:28.839Z,7.30
2024-04-26T21:17:33.447Z,7.20
2024-04-26T21:19:38.122Z,7.30
2024-04-26T21:21:42.688Z,7.30
2024-04-26T21:23:49.900Z,7.30
2024-04-26T21:25:54.456Z,7.30
2024-04-26T21:28:02.245Z,7.30
2024-04-26T21:30:07.233Z,7.30
2024-04-26T21:32:11.859Z,7.30
2024-04-26T21:34:16.390Z,7.30
2024-04-26T21:36:18.403Z,7.30
2024-04-26T21:38:22.908Z,7.30
2024-04-26T21:40:30.734Z,7.30
2024-04-26T21:42:35.322Z,7.40
2024-04-26T21:44:39.817Z,7.40
2024-04-26T21:46:47.219Z,7.40
2024-04-26T21:48:52.668Z,7.40
2024-04-26T21:50:54.738Z,7.40
2024-04-26T21:52:59.269Z,7.50
2024-04-26T21:55:04.009Z,7.40
2024-04-26T21:57:11.204Z,7.50
2024-04-26T21:59:17.008Z,7.40
2024-04-26T22:01:19.356Z,7.40
2024-04-26T22:03:26.705Z,7.30
2024-04-26T22:05:31.283Z,7.40
2024-04-26T22:07:35.829Z,7.40
2024-04-26T22:09:40.371Z,7.40
2024-04-26T22:11:44.952Z,7.50
2024-04-26T22:13:52.138Z,7.50
2024-04-26T22:15:56.655Z,7.40
2024-04-26T22:18:01.308Z,7.40
2024-04-26T22:20:06.074Z,7.40
2024-04-26T22:22:11.103Z,7.40
2024-04-26T22:24:15.607Z,7.40
2024-04-26T22:26:20.127Z,7.40
2024-04-26T22:28:24.675Z,7.40
2024-04-26T22:30:31.820Z,7.40
2024-04-26T22:32:34.542Z,7.50
2024-04-26T22:34:39.150Z,7.40
2024-04-26T22:36:43.713Z,7.50
2024-04-26T22:38:48.230Z,7.40
2024-04-26T22:40:52.755Z,7.40
2024-04-26T22:42:57.254Z,7.40
2024-04-26T22:45:03.532Z,7.40
2024-04-26T22:47:10.865Z,7.40
2024-04-26T22:49:20.352Z,7.40
2024-04-26T22:51:28.871Z,7.40
2024-04-26T22:53:33.395Z,7.50
2024-04-26T22:55:35.464Z,7.50
2024-04-26T22:57:39.992Z,7.40
2024-04-26T22:59:41.959Z,7.50
2024-04-26T23:01:46.570Z,7.50
2024-04-26T23:03:51.201Z,7.50
2024-04-26T23:05:55.803Z,7.50
2024-04-26T23:08:00.925Z,7.50
2024-04-26T23:10:05.540Z,7.50
2024-04-26T23:12:07.458Z,7.50
2024-04-26T23:14:11.992Z,7.50
2024-04-26T23:16:14.332Z,7.60
2024-04-26T23:18:18.864Z,7.60
2024-04-26T23:20:23.460Z,7.50
2024-04-26T23:22:28.070Z,7.50
2024-04-26T23:24:32.635Z,7.60
2024-04-26T23:26:37.151Z,7.60
2024-04-26T23:28:39.424Z,7.60
2024-04-26T23:30:43.930Z,7.60
2024-04-26T23:32:48.532Z,7.60
2024-04-26T23:34:53.104Z,7.60
2024-04-26T23:37:00.302Z,7.60
2024-04-26T23:39:04.845Z,7.60
2024-04-26T23:41:06.921Z,7.60
2024-04-26T23:43:11.443Z,7.60
2024-04-26T23:45:15.968Z,7.60
2024-04-26T23:47:18.024Z,7.60
2024-04-26T23:49:22.574Z,7.60
2024-04-26T23:51:27.103Z,7.60
2024-04-26T23:53:34.196Z,7.60
2024-04-26T23:55:38.866Z,7.60
2024-04-26T23:57:43.400Z,7.60
2024-04-26T23:59:47.907Z,7.60
